Time;durP1;ratioP1;P1;durP2;ratioP2;P2;SDS_P1;SDS_P2;PMS_P1;PMS_P2;Temp;Humidity;BMP_temperature;BMP_pressure;BME280_temperature;BME280_humidity;BME280_pressure;Samples;Min_cycle;Max_cycle;Signal;HPM_P1;HPM_P2
2022/08/12 00:43:52;;;;;;;0.35;0.35;;;12.70;99.90;;;;;;5011674;28;20485;-79
2022/08/12 00:46:32;;;;;;;0.98;0.50;;;12.70;99.90;;;;;;5012089;28;20614;-79
2022/08/12 00:49:01;;;;;;;1.40;0.70;;;12.70;99.90;;;;;;5010299;28;20022;-80
2022/08/12 00:54:17;;;;;;;1.15;0.60;;;12.70;99.90;;;;;;5011778;28;20787;-79
2022/08/12 00:56:47;;;;;;;0.70;0.40;;;12.60;99.90;;;;;;5009884;28;20014;-80
2022/08/12 00:59:16;;;;;;;0.77;0.60;;;12.60;99.90;;;;;;5012299;28;20034;-80
2022/08/12 01:01:48;;;;;;;1.67;0.82;;;12.60;99.90;;;;;;5012220;28;20109;-80
2022/08/12 01:12:43;;;;;;;0.75;0.47;;;12.60;99.90;;;;;;4972016;28;20046;-81
2022/08/12 01:15:13;;;;;;;0.70;0.60;;;12.60;99.90;;;;;;5010949;28;20025;-80
2022/08/12 01:17:45;;;;;;;0.95;0.50;;;12.60;99.90;;;;;;5013717;28;20026;-81
2022/08/12 01:20:34;;;;;;;1.35;0.70;;;12.60;99.90;;;;;;5013916;28;20080;-79
2022/08/12 01:23:08;;;;;;;0.40;0.40;;;12.60;99.90;;;;;;5014781;28;20034;-80
2022/08/12 01:25:41;;;;;;;1.63;0.50;;;12.70;99.90;;;;;;5016032;28;20567;-79
2022/08/12 01:28:12;;;;;;;1.10;0.60;;;12.70;99.90;;;;;;5015629;28;20062;-79
2022/08/12 01:30:42;;;;;;;1.20;0.98;;;12.70;99.90;;;;;;5015166;28;20014;-81
2022/08/12 01:33:17;;;;;;;0.85;0.70;;;12.80;99.90;;;;;;5015629;28;20053;-81
2022/08/12 01:35:49;;;;;;;0.98;0.57;;;12.70;99.90;;;;;;5015145;28;20052;-79
2022/08/12 01:38:21;;;;;;;3.95;0.80;;;12.70;99.90;;;;;;5015146;28;20109;-78
2022/08/12 01:40:52;;;;;;;0.77;0.50;;;12.80;99.90;;;;;;5018801;28;20041;-78
2022/08/12 01:43:23;;;;;;;0.60;0.47;;;12.80;99.90;;;;;;4997078;28;20033;-78
2022/08/12 01:46:13;;;;;;;0.90;0.73;;;12.90;99.90;;;;;;5015960;28;20030;-78
2022/08/12 01:48:53;;;;;;;1.90;0.60;;;13.00;99.90;;;;;;5015445;28;20040;-78
2022/08/12 01:51:41;;;;;;;2.90;1.00;;;13.10;99.90;;;;;;5013492;28;20029;-78
2022/08/12 01:54:12;;;;;;;1.83;1.08;;;13.20;99.90;;;;;;5014487;28;20538;-78
2022/08/12 01:56:57;;;;;;;1.40;0.65;;;13.20;99.90;;;;;;5015701;28;20483;-78
2022/08/12 01:59:46;;;;;;;1.73;0.80;;;13.20;99.90;;;;;;5015600;28;20045;-79
2022/08/12 02:03:00;;;;;;;0.77;0.57;;;13.30;99.90;;;;;;5015109;28;20534;-79
2022/08/12 02:12:02;;;;;;;1.25;0.70;;;13.60;99.90;;;;;;5014831;28;20092;-79
2022/08/12 02:15:16;;;;;;;1.63;0.60;;;13.70;99.90;;;;;;5014314;28;20029;-79
2022/08/12 02:17:55;;;;;;;1.35;0.70;;;13.70;99.90;;;;;;5013495;28;20494;-79
2022/08/12 02:20:43;;;;;;;1.52;0.63;;;13.80;99.90;;;;;;5012729;28;20545;-79
2022/08/12 02:23:13;;;;;;;1.67;0.80;;;13.80;99.90;;;;;;5014353;28;20398;-79
2022/08/12 02:25:45;;;;;;;0.80;0.40;;;13.70;99.90;;;;;;5014748;28;20378;-79
2022/08/12 02:28:13;;;;;;;1.20;0.60;;;13.80;99.90;;;;;;5014898;28;20038;-79
2022/08/12 02:30:41;;;;;;;5.30;0.77;;;13.80;99.90;;;;;;5014793;28;20018;-79
2022/08/12 02:33:10;;;;;;;1.02;0.45;;;13.80;99.90;;;;;;5014794;28;20026;-79
2022/08/12 02:35:38;;;;;;;0.95;0.70;;;13.80;99.90;;;;;;5014949;28;20022;-79
2022/08/12 02:38:09;;;;;;;2.35;0.80;;;13.80;99.90;;;;;;5014604;28;20076;-79
2022/08/12 02:40:44;;;;;;;1.15;0.68;;;13.90;99.90;;;;;;5014535;28;20501;-79
2022/08/12 02:43:31;;;;;;;1.27;0.70;;;13.90;99.90;;;;;;5014706;28;20558;-79
2022/08/12 02:46:05;;;;;;;0.73;0.60;;;14.00;99.90;;;;;;5014837;28;20356;-79
2022/08/12 02:48:50;;;;;;;1.70;0.80;;;14.00;99.90;;;;;;5014249;28;20057;-79
2022/08/12 02:51:25;;;;;;;1.85;0.52;;;14.10;99.90;;;;;;5014342;28;20494;-78
2022/08/12 02:53:56;;;;;;;0.93;0.63;;;14.10;99.90;;;;;;5014684;28;20030;-79
2022/08/12 02:56:26;;;;;;;1.75;0.40;;;14.10;99.90;;;;;;5013852;28;20018;-79
2022/08/12 02:58:56;;;;;;;2.05;0.82;;;14.20;99.90;;;;;;5012839;28;20037;-78
2022/08/12 03:01:34;;;;;;;0.90;0.63;;;14.20;99.90;;;;;;5003499;28;20398;-79
2022/08/12 03:04:06;;;;;;;2.38;0.90;;;14.40;99.90;;;;;;5009479;28;20072;-80
2022/08/12 03:06:45;;;;;;;0.80;0.77;;;14.40;99.90;;;;;;5014349;28;20375;-79
2022/08/12 03:09:15;;;;;;;0.82;0.40;;;14.50;99.90;;;;;;5013359;28;20014;-79
2022/08/12 03:12:06;;;;;;;1.50;0.70;;;14.60;99.90;;;;;;5011228;28;20065;-80
2022/08/12 03:14:35;;;;;;;1.02;0.60;;;14.60;99.90;;;;;;5013463;28;20018;-79
2022/08/12 03:17:29;;;;;;;0.60;0.47;;;14.60;99.90;;;;;;5011714;28;20529;-79
2022/08/12 03:19:59;;;;;;;0.75;0.68;;;14.60;99.90;;;;;;5012903;28;20022;-78
2022/08/12 03:22:28;;;;;;;1.17;0.50;;;14.50;99.90;;;;;;5012678;28;20093;-78
2022/08/12 03:25:03;;;;;;;4.03;0.60;;;14.40;99.90;;;;;;5013100;28;20033;-79
2022/08/12 03:27:31;;;;;;;0.88;0.60;;;14.40;99.90;;;;;;5012028;28;20041;-78
2022/08/12 03:29:59;;;;;;;1.13;0.68;;;14.30;99.90;;;;;;5012274;28;20149;-78
2022/08/12 03:32:30;;;;;;;0.90;0.50;;;14.30;99.90;;;;;;5011774;28;20030;-78
2022/08/12 03:35:00;;;;;;;1.65;0.60;;;14.30;99.90;;;;;;5011297;28;20033;-78
2022/08/12 03:37:29;;;;;;;0.60;0.50;;;14.20;99.90;;;;;;5010388;28;20022;-77
2022/08/12 03:39:57;;;;;;;1.92;0.60;;;14.20;99.90;;;;;;5010790;28;20105;-77
2022/08/12 04:02:13;;;;;;;1.02;0.50;;;13.90;99.90;;;;;;5005936;28;20040;-77
2022/08/12 04:04:44;;;;;;;1.50;0.80;;;13.80;99.90;;;;;;5012696;28;20018;-78
2022/08/12 04:07:12;;;;;;;1.25;0.60;;;13.80;99.90;;;;;;5013001;28;20033;-77
2022/08/12 04:09:43;;;;;;;0.93;0.50;;;13.80;99.90;;;;;;4998989;28;20114;-77
2022/08/12 04:14:58;;;;;;;5.88;0.90;;;13.80;99.90;;;;;;5013328;28;20030;-78
2022/08/12 04:17:26;;;;;;;1.92;0.70;;;13.70;99.90;;;;;;5013076;28;20021;-77
2022/08/12 04:19:58;;;;;;;0.82;0.50;;;13.70;99.90;;;;;;5012779;28;20050;-77
2022/08/12 04:22:29;;;;;;;1.40;0.60;;;13.70;99.90;;;;;;5011916;28;20542;-77
2022/08/12 04:25:01;;;;;;;1.00;0.73;;;13.70;99.90;;;;;;5011448;28;20503;-77
2022/08/12 04:27:30;;;;;;;1.63;0.70;;;13.70;99.90;;;;;;5011713;28;20457;-77
2022/08/12 04:29:58;;;;;;;0.50;0.50;;;13.60;99.90;;;;;;5012375;28;20014;-77
2022/08/12 04:32:26;;;;;;;0.57;0.50;;;13.60;99.90;;;;;;5010375;28;20368;-77
2022/08/12 04:34:55;;;;;;;1.10;0.70;;;13.60;99.90;;;;;;5001482;28;20464;-79
2022/08/12 04:37:22;;;;;;;0.77;0.55;;;13.60;99.90;;;;;;5002260;28;20025;-86
2022/08/12 04:39:52;;;;;;;0.60;0.40;;;13.60;99.90;;;;;;4999239;28;20015;-75
2022/08/12 04:42:24;;;;;;;2.50;0.57;;;13.60;99.90;;;;;;4997191;28;20041;-75
2022/08/12 04:44:52;;;;;;;0.82;0.60;;;13.60;99.90;;;;;;5005361;28;20073;-76
2022/08/12 04:47:22;;;;;;;1.75;0.50;;;13.60;99.90;;;;;;5002114;28;20145;-75
2022/08/12 04:49:50;;;;;;;1.05;0.60;;;13.50;99.90;;;;;;5000071;28;20046;-75
2022/08/12 04:52:18;;;;;;;0.57;0.40;;;13.60;99.90;;;;;;5001724;28;20026;-75
2022/08/12 04:54:47;;;;;;;1.40;0.50;;;13.50;99.90;;;;;;5006932;28;20471;-77
2022/08/12 04:57:15;;;;;;;0.70;0.40;;;13.50;99.90;;;;;;5015767;28;20383;-81
2022/08/12 04:59:43;;;;;;;1.75;0.60;;;13.50;99.90;;;;;;5016178;28;20485;-81
2022/08/12 05:02:10;;;;;;;1.35;0.57;;;13.40;99.90;;;;;;5004539;28;20026;-76
2022/08/12 05:04:38;;;;;;;0.73;0.40;;;13.40;99.90;;;;;;5005244;28;20402;-78
2022/08/12 05:07:07;;;;;;;1.00;0.57;;;13.40;99.90;;;;;;5010925;28;20042;-78
2022/08/12 05:09:34;;;;;;;0.57;0.50;;;13.40;99.90;;;;;;5013200;28;20022;-80
2022/08/12 05:12:02;;;;;;;0.77;0.47;;;13.30;99.90;;;;;;5012623;28;20088;-79
2022/08/12 05:14:31;;;;;;;0.65;0.50;;;13.30;99.90;;;;;;5011252;28;20537;-78
2022/08/12 05:16:59;;;;;;;0.50;0.40;;;13.30;99.90;;;;;;5012205;28;20022;-78
2022/08/12 05:19:28;;;;;;;0.82;0.57;;;13.30;99.90;;;;;;5010035;28;20022;-77
2022/08/12 05:21:56;;;;;;;0.52;0.32;;;13.30;99.90;;;;;;5010885;28;20364;-80
2022/08/12 05:24:23;;;;;;;1.30;0.60;;;13.30;99.90;;;;;;5013369;28;20018;-79
2022/08/12 05:26:51;;;;;;;1.77;1.02;;;13.40;99.90;;;;;;5012977;28;20010;-78
2022/08/12 05:29:19;;;;;;;4.43;0.40;;;13.40;99.90;;;;;;5013813;28;20372;-77
2022/08/12 05:31:48;;;;;;;0.65;0.50;;;13.40;99.90;;;;;;5014847;28;20014;-80
2022/08/12 05:34:16;;;;;;;1.05;0.50;;;13.40;99.90;;;;;;5015153;28;20462;-77
2022/08/12 05:36:43;;;;;;;0.70;0.50;;;13.50;99.90;;;;;;5014774;28;20044;-77
2022/08/12 05:39:11;;;;;;;3.00;0.70;;;13.40;99.90;;;;;;5014491;28;20026;-77
2022/08/12 05:41:40;;;;;;;0.57;0.50;;;13.40;99.90;;;;;;5014690;28;20026;-79
2022/08/12 05:44:15;;;;;;;0.85;0.68;;;13.40;99.90;;;;;;4996804;28;20037;-77
2022/08/12 05:46:42;;;;;;;0.63;0.50;;;13.40;99.90;;;;;;5014969;28;20117;-79
2022/08/12 05:49:10;;;;;;;1.42;0.60;;;13.40;99.90;;;;;;4995685;28;20026;-80
2022/08/12 05:51:38;;;;;;;3.78;0.65;;;13.40;99.90;;;;;;5014826;28;20088;-78
2022/08/12 05:54:06;;;;;;;1.70;0.57;;;13.40;99.90;;;;;;5001371;28;20568;-80
2022/08/12 05:56:35;;;;;;;1.50;0.63;;;13.30;99.90;;;;;;4999454;28;20058;-80
2022/08/12 05:59:09;;;;;;;3.50;0.70;;;13.30;99.90;;;;;;5000299;28;20034;-80
2022/08/12 06:01:38;;;;;;;1.98;0.77;;;13.30;99.90;;;;;;5005193;28;20030;-80
2022/08/12 06:04:07;;;;;;;0.73;0.60;;;13.30;99.90;;;;;;4997883;28;20068;-79
2022/08/12 06:06:41;;;;;;;3.17;0.70;;;13.20;99.90;;;;;;4994127;28;20058;-80
2022/08/12 06:09:10;;;;;;;1.08;0.57;;;13.20;99.90;;;;;;4996464;28;20058;-78
2022/08/12 06:11:41;;;;;;;1.65;0.73;;;13.20;99.90;;;;;;5006047;28;20067;-80
2022/08/12 06:14:09;;;;;;;1.10;0.55;;;13.20;99.90;;;;;;5004549;28;20369;-78
2022/08/12 06:16:36;;;;;;;1.45;0.60;;;13.20;99.90;;;;;;4995279;28;20034;-80
2022/08/12 06:19:06;;;;;;;1.33;0.85;;;13.20;99.90;;;;;;4977235;28;20431;-80
2022/08/12 06:21:36;;;;;;;1.08;0.57;;;13.20;99.90;;;;;;4994068;28;20507;-80
2022/08/12 06:24:04;;;;;;;4.78;0.80;;;13.20;99.90;;;;;;4994639;28;20080;-80
2022/08/12 06:26:33;;;;;;;4.28;0.85;;;13.20;99.90;;;;;;4994481;28;20038;-81
2022/08/12 06:29:01;;;;;;;1.38;0.88;;;13.20;99.90;;;;;;4994488;28;20480;-81
2022/08/12 06:31:33;;;;;;;2.58;0.90;;;13.20;99.90;;;;;;4994229;28;20023;-79
2022/08/12 06:34:01;;;;;;;1.23;0.57;;;13.20;99.90;;;;;;4994441;28;20427;-80
2022/08/12 06:36:29;;;;;;;2.28;0.80;;;13.20;99.90;;;;;;4994183;28;20018;-80
2022/08/12 06:38:57;;;;;;;2.63;0.95;;;13.10;99.90;;;;;;4995343;28;20034;-81
2022/08/12 06:44:19;;;;;;;0.88;0.80;;;13.10;99.90;;;;;;4998098;28;20037;-81
2022/08/12 06:46:47;;;;;;;1.75;0.90;;;13.00;99.90;;;;;;4993573;28;20042;-81
2022/08/12 06:49:15;;;;;;;2.25;0.85;;;13.10;99.90;;;;;;4994147;28;20383;-81
2022/08/12 06:51:43;;;;;;;3.58;0.93;;;13.00;99.90;;;;;;4994115;28;20513;-81
2022/08/12 06:54:10;;;;;;;2.65;1.40;;;13.00;99.90;;;;;;4993958;28;20471;-80
2022/08/12 06:56:38;;;;;;;5.28;1.48;;;13.00;99.90;;;;;;4994291;28;20093;-80
2022/08/12 06:59:06;;;;;;;2.17;1.33;;;12.90;99.90;;;;;;4992949;28;20512;-81
2022/08/12 07:01:35;;;;;;;2.40;1.25;;;12.90;99.90;;;;;;4992375;28;20097;-80
2022/08/12 07:04:03;;;;;;;1.83;1.20;;;12.80;99.90;;;;;;4992023;28;20049;-81
2022/08/12 07:06:30;;;;;;;1.27;1.00;;;12.80;99.90;;;;;;4991762;28;20073;-81
2022/08/12 07:08:58;;;;;;;5.97;1.48;;;12.80;99.90;;;;;;4991706;28;20027;-79
2022/08/12 07:11:29;;;;;;;1.80;1.15;;;12.70;99.90;;;;;;4993622;28;20018;-80
2022/08/12 07:13:59;;;;;;;1.90;1.20;;;12.70;99.90;;;;;;5013926;28;20057;-80
2022/08/12 07:16:50;;;;;;;2.72;1.67;;;12.70;99.90;;;;;;5013760;28;20025;-79
2022/08/12 07:19:16;;;;;;;3.38;1.20;;;12.70;99.90;;;;;;5013521;28;20108;-80
2022/08/12 07:21:44;;;;;;;2.88;1.52;;;12.60;99.90;;;;;;5013546;28;20034;-80
2022/08/12 07:24:11;;;;;;;5.40;1.83;;;12.60;99.90;;;;;;5014200;28;20026;-81
2022/08/12 07:26:52;;;;;;;2.08;1.88;;;12.60;99.90;;;;;;5011338;28;20034;-79
2022/08/12 07:29:21;;;;;;;2.25;1.48;;;12.60;99.90;;;;;;5009905;28;20017;-80
2022/08/12 07:31:49;;;;;;;3.67;1.60;;;12.60;99.90;;;;;;5012654;28;20403;-80
2022/08/12 07:34:17;;;;;;;3.53;1.98;;;12.50;99.90;;;;;;5012977;28;20022;-80
2022/08/12 07:36:47;;;;;;;2.38;1.50;;;12.60;99.90;;;;;;5012719;28;20022;-81
2022/08/12 07:39:15;;;;;;;2.67;1.83;;;12.50;99.90;;;;;;5009394;28;20386;-79
2022/08/12 07:41:43;;;;;;;2.22;1.70;;;12.50;99.90;;;;;;5013069;28;20026;-79
2022/08/12 07:44:12;;;;;;;2.20;1.83;;;12.50;99.90;;;;;;4995526;28;20045;-79
2022/08/12 07:46:42;;;;;;;2.83;1.98;;;12.50;99.90;;;;;;5012825;28;20065;-79
2022/08/12 07:49:13;;;;;;;2.63;1.70;;;12.50;99.90;;;;;;5012963;28;20022;-79
2022/08/12 07:51:42;;;;;;;2.25;1.80;;;12.50;99.90;;;;;;5003654;28;20022;-80
2022/08/12 07:54:12;;;;;;;2.85;1.88;;;12.50;99.90;;;;;;5013142;28;20406;-78
2022/08/12 07:56:42;;;;;;;3.67;2.20;;;12.40;99.90;;;;;;5012853;28;20028;-77
2022/08/12 07:59:10;;;;;;;3.03;2.00;;;12.40;99.90;;;;;;5012043;28;20026;-76
2022/08/12 08:01:38;;;;;;;4.57;1.80;;;12.40;99.90;;;;;;5012400;28;20474;-80
2022/08/12 08:06:52;;;;;;;2.95;1.90;;;12.40;99.90;;;;;;5010779;28;20500;-80
2022/08/12 08:09:22;;;;;;;4.75;2.13;;;12.40;99.90;;;;;;5012172;28;20470;-80
2022/08/12 08:14:39;;;;;;;3.55;1.92;;;12.40;99.90;;;;;;5013376;28;20474;-79
2022/08/12 08:17:07;;;;;;;3.22;1.90;;;12.30;99.90;;;;;;5009429;28;20026;-76
2022/08/12 08:19:35;;;;;;;5.72;2.22;;;12.30;99.90;;;;;;5015680;28;20105;-77
2022/08/12 08:22:02;;;;;;;4.68;1.88;;;12.30;99.90;;;;;;5016655;28;20040;-79
2022/08/12 08:24:30;;;;;;;2.83;1.95;;;12.30;99.90;;;;;;5016849;28;20479;-80
2022/08/12 08:26:59;;;;;;;6.70;1.95;;;12.30;99.90;;;;;;5016398;28;20422;-76
2022/08/12 08:29:28;;;;;;;3.97;2.00;;;12.30;99.90;;;;;;5006266;28;20022;-76
2022/08/12 08:32:00;;;;;;;2.33;2.13;;;12.30;99.90;;;;;;5016334;28;20526;-76
2022/08/12 08:34:33;;;;;;;3.17;1.88;;;12.30;99.90;;;;;;5016591;28;20022;-76
2022/08/12 08:37:01;;;;;;;2.90;1.55;;;12.30;99.90;;;;;;5016273;28;20049;-80
2022/08/12 08:39:30;;;;;;;3.03;2.13;;;12.30;99.90;;;;;;5016263;28;20463;-76
2022/08/12 08:44:45;;;;;;;2.10;1.85;;;12.30;99.90;;;;;;5009874;28;20073;-76
2022/08/12 08:47:13;;;;;;;3.00;1.98;;;12.30;99.90;;;;;;5019992;28;20431;-79
2022/08/12 08:49:41;;;;;;;2.97;2.15;;;12.20;99.90;;;;;;5017151;28;20013;-80
2022/08/12 08:52:10;;;;;;;2.53;2.25;;;12.20;99.90;;;;;;5020322;28;20033;-76
2022/08/12 08:54:39;;;;;;;5.30;2.63;;;12.20;99.90;;;;;;5016276;28;20101;-76
2022/08/12 08:57:08;;;;;;;2.35;2.15;;;12.20;99.90;;;;;;5013078;28;20595;-77
2022/08/12 08:59:36;;;;;;;2.38;2.15;;;12.20;99.90;;;;;;5015004;28;20029;-76
2022/08/12 09:02:04;;;;;;;2.55;2.30;;;12.20;99.90;;;;;;5015579;28;20437;-77
2022/08/12 09:04:31;;;;;;;4.13;2.33;;;12.20;99.90;;;;;;5015214;28;20017;-76
2022/08/12 09:07:00;;;;;;;5.28;2.17;;;12.20;99.90;;;;;;5013325;28;20040;-76
2022/08/12 09:09:28;;;;;;;2.17;1.67;;;12.20;99.90;;;;;;5015909;28;20026;-76
2022/08/12 09:14:42;;;;;;;6.70;2.78;;;12.20;99.90;;;;;;5015892;28;20386;-76
2022/08/12 09:17:12;;;;;;;2.60;2.05;;;12.20;99.90;;;;;;4996758;28;20169;-76
2022/08/12 09:19:40;;;;;;;2.85;2.00;;;12.20;99.90;;;;;;4979061;28;20465;-76
2022/08/12 09:22:08;;;;;;;3.78;2.58;;;12.20;99.90;;;;;;4997308;28;20030;-76
2022/08/12 09:24:36;;;;;;;4.15;2.55;;;12.20;99.90;;;;;;4995910;28;20109;-76
2022/08/12 09:27:05;;;;;;;2.83;2.00;;;12.20;99.90;;;;;;4994337;28;20034;-76
2022/08/12 09:29:33;;;;;;;3.75;2.22;;;12.20;99.90;;;;;;4996786;28;20058;-76
2022/08/12 09:32:05;;;;;;;3.03;2.45;;;12.20;99.90;;;;;;5011316;28;20018;-76
2022/08/12 09:34:35;;;;;;;4.25;2.53;;;12.20;99.90;;;;;;5014727;28;20037;-80
2022/08/12 09:37:03;;;;;;;3.15;2.35;;;12.20;99.90;;;;;;5015411;28;20123;-76
2022/08/12 09:39:31;;;;;;;3.60;2.65;;;12.20;99.90;;;;;;5015017;28;20471;-76
2022/08/12 09:47:30;;;;;;;4.05;3.33;;;12.20;99.90;;;;;;5014428;28;20049;-79
2022/08/12 09:49:57;;;;;;;6.05;3.47;;;12.20;99.90;;;;;;5014349;28;20025;-76
2022/08/12 09:52:25;;;;;;;4.20;3.13;;;12.20;99.90;;;;;;5014807;28;20026;-76
2022/08/12 09:54:53;;;;;;;4.72;2.88;;;12.20;99.90;;;;;;4996759;28;20431;-76
2022/08/12 09:57:21;;;;;;;4.35;3.05;;;12.10;99.90;;;;;;5011925;28;20079;-77
2022/08/12 09:59:49;;;;;;;8.43;3.05;;;12.10;99.90;;;;;;5012212;28;20489;-80
2022/08/12 10:02:16;;;;;;;3.75;2.88;;;12.20;99.90;;;;;;5002558;28;20041;-80
2022/08/12 10:04:47;;;;;;;4.30;2.92;;;12.10;99.90;;;;;;5012152;28;20022;-80
2022/08/12 10:07:15;;;;;;;4.60;3.25;;;12.20;99.90;;;;;;5015040;28;20088;-78
2022/08/12 10:09:43;;;;;;;3.45;2.85;;;12.10;99.90;;;;;;5011850;28;20050;-77
2022/08/12 10:14:56;;;;;;;;;;;12.20;99.90;;;;;;4998590;28;20033;-80
2022/08/12 10:17:24;;;;;;;7.25;3.67;;;12.20;99.90;;;;;;4995311;28;20001;-80
2022/08/12 10:19:51;;;;;;;5.13;3.00;;;12.20;99.90;;;;;;4995917;28;20031;-80
2022/08/12 10:22:20;;;;;;;6.28;3.38;;;12.10;99.90;;;;;;5012134;28;20092;-76
2022/08/12 10:29:35;;;;;;;4.03;2.85;;;12.10;99.90;;;;;;4999190;28;20104;-77
2022/08/12 10:30:21;;;;;;;3.63;3.20;;;12.10;99.90;;;;;;5011798;28;20041;-76
2022/08/12 10:32:58;;;;;;;3.65;3.25;;;12.10;99.90;;;;;;5011519;28;20482;-75
2022/08/12 10:35:31;;;;;;;4.30;3.20;;;12.10;99.90;;;;;;5002109;28;20014;-76
2022/08/12 10:38:02;;;;;;;3.70;2.97;;;12.10;99.90;;;;;;5003628;28;20018;-76
2022/08/12 10:40:30;;;;;;;6.35;3.53;;;12.10;99.90;;;;;;5002436;28;20096;-77
2022/08/12 10:45:47;;;;;;;3.50;3.08;;;12.10;99.90;;;;;;5004075;28;20414;-76
2022/08/12 10:48:15;;;;;;;3.88;2.80;;;12.10;99.90;;;;;;5011312;28;20503;-78
2022/08/12 10:50:43;;;;;;;5.80;3.10;;;12.10;99.90;;;;;;5012270;28;20026;-80
2022/08/12 10:53:11;;;;;;;7.13;3.33;;;12.10;99.90;;;;;;5012551;28;20478;-77
2022/08/12 10:55:39;;;;;;;3.75;3.33;;;12.10;99.90;;;;;;5012375;28;20471;-80
2022/08/12 10:58:07;;;;;;;4.07;3.60;;;12.10;99.90;;;;;;5004731;28;20097;-79
2022/08/12 11:00:37;;;;;;;4.13;2.75;;;12.10;99.90;;;;;;5002779;28;20015;-77
2022/08/12 11:03:27;;;;;;;5.05;3.70;;;12.10;99.90;;;;;;5061785;27;20427;-77
2022/08/12 11:05:57;;;;;;;4.13;3.20;;;12.00;99.90;;;;;;5068614;28;20096;-76
2022/08/12 11:08:26;;;;;;;4.75;3.75;;;12.10;99.90;;;;;;5066404;28;20028;-76
2022/08/12 11:10:54;;;;;;;4.30;3.60;;;12.00;99.90;;;;;;5067810;28;20028;-76
2022/08/12 11:13:21;;;;;;;8.05;3.00;;;12.00;99.90;;;;;;5067980;28;20024;-76
2022/08/12 11:15:48;;;;;;;3.67;3.30;;;12.00;99.90;;;;;;5068583;28;20021;-77
2022/08/12 11:18:16;;;;;;;4.82;3.22;;;12.00;99.90;;;;;;5068522;28;20020;-76
2022/08/12 11:20:43;;;;;;;3.83;3.22;;;12.00;99.90;;;;;;5068306;28;20043;-76
2022/08/12 11:23:10;;;;;;;4.07;3.20;;;12.00;99.90;;;;;;5068446;28;20033;-77
2022/08/12 11:25:38;;;;;;;5.57;3.08;;;12.00;99.90;;;;;;5065675;28;20024;-76
2022/08/12 11:28:05;;;;;;;9.05;3.60;;;12.00;99.90;;;;;;5050088;28;20053;-77
2022/08/12 11:30:32;;;;;;;4.68;3.38;;;12.00;99.90;;;;;;5068011;28;20484;-78
2022/08/12 11:33:00;;;;;;;3.97;2.72;;;12.00;99.90;;;;;;5068267;28;20020;-76
2022/08/12 11:35:27;;;;;;;4.38;2.90;;;12.00;99.90;;;;;;5068398;28;20032;-79
2022/08/12 11:37:54;;;;;;;4.38;2.83;;;12.00;99.90;;;;;;5068422;28;20017;-77
2022/08/12 11:40:22;;;;;;;3.97;3.20;;;12.00;99.90;;;;;;5068170;28;20032;-80
2022/08/12 11:42:50;;;;;;;5.18;3.00;;;12.00;99.90;;;;;;5067031;28;20037;-78
2022/08/12 11:45:18;;;;;;;3.13;2.83;;;12.00;99.90;;;;;;5068513;28;20099;-80
2022/08/12 11:47:46;;;;;;;3.88;2.67;;;12.00;99.90;;;;;;5067142;28;20468;-80
2022/08/12 11:50:13;;;;;;;3.10;2.20;;;12.00;99.90;;;;;;5067089;28;20033;-77
2022/08/12 11:52:40;;;;;;;4.20;2.53;;;12.00;99.90;;;;;;5068255;28;20359;-76
2022/08/12 11:55:09;;;;;;;5.22;3.03;;;12.00;99.90;;;;;;5067899;28;20111;-80
2022/08/12 11:57:51;;;;;;;4.75;2.78;;;12.00;99.90;;;;;;5067311;28;20027;-80
2022/08/12 12:00:19;;;;;;;3.55;2.97;;;12.00;99.90;;;;;;5067439;28;20112;-80
2022/08/12 12:02:47;;;;;;;2.95;2.33;;;12.00;99.90;;;;;;5067533;28;20111;-80
2022/08/12 12:05:18;;;;;;;3.47;2.47;;;12.00;99.90;;;;;;5049693;28;20108;-77
2022/08/12 12:07:46;;;;;;;4.07;2.85;;;12.00;99.90;;;;;;5065663;28;20016;-77
2022/08/12 12:10:17;;;;;;;7.15;2.65;;;12.00;99.90;;;;;;5067098;28;20013;-78
2022/08/12 12:12:44;;;;;;;5.18;3.65;;;12.00;99.90;;;;;;5065443;28;20021;-78
2022/08/12 12:15:12;;;;;;;4.65;3.10;;;12.00;99.90;;;;;;5054104;28;20021;-76
2022/08/12 12:17:41;;;;;;;4.07;2.85;;;12.00;99.90;;;;;;5054638;28;20029;-77
2022/08/12 12:20:11;;;;;;;3.42;2.80;;;12.00;99.90;;;;;;5054077;28;20508;-77
2022/08/12 12:22:40;;;;;;;3.63;2.75;;;11.90;99.90;;;;;;5053794;28;20404;-76
2022/08/12 12:25:09;;;;;;;2.60;2.25;;;12.00;99.90;;;;;;5054103;28;20063;-80
2022/08/12 12:27:57;;;;;;;3.75;2.90;;;12.00;99.90;;;;;;5054315;28;20474;-80
2022/08/12 12:30:24;;;;;;;3.40;2.83;;;11.90;99.90;;;;;;5052984;28;20029;-77
2022/08/12 12:32:51;;;;;;;2.63;2.42;;;11.90;99.90;;;;;;5053984;28;20070;-79
2022/08/12 12:35:19;;;;;;;4.20;2.97;;;11.90;99.90;;;;;;5054833;28;20033;-76
2022/08/12 12:37:55;;;;;;;4.35;2.92;;;11.90;99.90;;;;;;5054878;28;20031;-78
2022/08/12 12:40:23;;;;;;;4.25;2.70;;;11.90;99.90;;;;;;5053726;28;20028;-76
2022/08/12 12:42:51;;;;;;;3.70;2.88;;;11.90;99.90;;;;;;5053745;28;20029;-77
2022/08/12 12:45:19;;;;;;;2.50;2.30;;;11.90;99.90;;;;;;5054011;28;20100;-76
2022/08/12 12:48:00;;;;;;;3.50;2.90;;;11.90;99.90;;;;;;5054032;28;20025;-79
2022/08/12 12:50:30;;;;;;;3.10;2.50;;;11.90;99.90;;;;;;5053864;28;20025;-76
2022/08/12 12:52:58;;;;;;;4.93;2.60;;;11.90;99.90;;;;;;5053338;28;20485;-79
2022/08/12 12:55:27;;;;;;;3.05;2.50;;;11.90;99.90;;;;;;5041317;28;20041;-79
2022/08/12 12:57:57;;;;;;;2.67;2.33;;;11.90;99.90;;;;;;5031887;28;20025;-79
2022/08/12 13:00:25;;;;;;;3.15;2.60;;;11.90;99.90;;;;;;5033404;28;20026;-79
2022/08/12 13:02:57;;;;;;;3.90;3.22;;;11.90;99.90;;;;;;5033923;28;20091;-76
2022/08/12 13:05:34;;;;;;;6.00;3.17;;;11.90;99.90;;;;;;5034525;28;20040;-79
2022/08/12 13:08:03;;;;;;;4.28;2.40;;;11.90;99.90;;;;;;5034404;28;20017;-77
2022/08/12 13:10:32;;;;;;;3.28;2.97;;;11.90;99.90;;;;;;5016320;28;20021;-77
2022/08/12 13:13:01;;;;;;;3.53;2.78;;;11.90;99.90;;;;;;5016425;28;20061;-78
2022/08/12 13:15:28;;;;;;;3.53;2.83;;;11.90;99.90;;;;;;5034300;28;20500;-78
2022/08/12 13:18:04;;;;;;;2.85;2.20;;;11.90;99.90;;;;;;5033412;28;20048;-78
2022/08/12 13:20:31;;;;;;;4.40;2.47;;;11.80;99.90;;;;;;5034108;28;20021;-77
2022/08/12 13:22:59;;;;;;;3.80;2.83;;;11.80;99.90;;;;;;5034408;28;20091;-76
2022/08/12 13:25:26;;;;;;;4.32;2.83;;;11.80;99.90;;;;;;5033527;28;20513;-77
2022/08/12 13:27:54;;;;;;;3.08;2.78;;;11.90;99.90;;;;;;5016488;28;20390;-80
2022/08/12 13:30:24;;;;;;;3.28;2.83;;;11.80;99.90;;;;;;5034251;28;20018;-80
2022/08/12 13:32:57;;;;;;;3.30;2.80;;;11.90;99.90;;;;;;5034099;28;20025;-78
2022/08/12 13:35:29;;;;;;;4.65;2.80;;;11.80;99.90;;;;;;5034293;28;20017;-76
2022/08/12 13:37:58;;;;;;;3.45;2.30;;;11.90;99.90;;;;;;5031674;28;20026;-77
2022/08/12 13:40:27;;;;;;;3.10;2.22;;;11.90;99.90;;;;;;5034158;28;20554;-79
2022/08/12 13:43:00;;;;;;;4.97;3.13;;;11.90;99.90;;;;;;5034058;28;20513;-79
2022/08/12 13:45:29;;;;;;;4.38;2.78;;;11.90;99.90;;;;;;5034199;28;20072;-76
2022/08/12 13:48:05;;;;;;;3.30;2.95;;;11.90;99.90;;;;;;5031572;28;20100;-76
2022/08/12 13:50:42;;;;;;;7.57;3.10;;;11.90;99.90;;;;;;5033918;28;20017;-79
2022/08/12 13:53:15;;;;;;;3.33;3.00;;;11.80;99.90;;;;;;5033845;28;20467;-79
2022/08/12 13:55:46;;;;;;;2.80;2.22;;;11.90;99.90;;;;;;5032135;28;20029;-76
2022/08/12 13:58:17;;;;;;;2.92;2.72;;;11.80;99.90;;;;;;5033796;28;20013;-76
2022/08/12 14:00:50;;;;;;;5.05;2.60;;;11.80;99.90;;;;;;5033844;28;20021;-78
2022/08/12 14:03:19;;;;;;;3.20;2.17;;;11.80;99.90;;;;;;5034121;28;20050;-77
2022/08/12 14:05:46;;;;;;;3.30;2.20;;;11.80;99.90;;;;;;5034044;28;20025;-78
2022/08/12 14:08:15;;;;;;;2.70;2.40;;;11.90;99.90;;;;;;5033936;28;20112;-78
2022/08/12 14:10:54;;;;;;;3.17;2.40;;;11.80;99.90;;;;;;5033933;28;20029;-78
2022/08/12 14:13:28;;;;;;;3.70;2.90;;;11.80;99.90;;;;;;5034169;28;20045;-76
2022/08/12 14:16:01;;;;;;;3.10;2.80;;;11.80;99.90;;;;;;5034009;28;20025;-77
2022/08/12 14:18:30;;;;;;;4.78;2.50;;;11.80;99.90;;;;;;5034107;28;20014;-77
2022/08/12 14:21:03;;;;;;;2.70;2.30;;;11.80;99.90;;;;;;5033941;28;20466;-77
2022/08/12 14:23:33;;;;;;;2.70;2.30;;;11.80;99.90;;;;;;5033836;28;20110;-78
2022/08/12 14:26:04;;;;;;;2.65;2.40;;;11.80;99.90;;;;;;5034016;28;20156;-78
2022/08/12 14:28:35;;;;;;;7.30;2.72;;;11.80;99.90;;;;;;5033784;28;20033;-78
2022/08/12 14:31:04;;;;;;;3.70;2.22;;;11.80;99.90;;;;;;5033382;28;20478;-77
2022/08/12 14:33:51;;;;;;;4.40;2.63;;;11.80;99.90;;;;;;5033703;28;20111;-78
2022/08/12 14:36:23;;;;;;;3.72;2.38;;;11.80;99.90;;;;;;5033530;28;20053;-76
2022/08/12 14:38:55;;;;;;;3.65;2.72;;;11.80;99.90;;;;;;5033478;28;20044;-77
2022/08/12 14:41:26;;;;;;;3.00;2.47;;;11.80;99.90;;;;;;5033544;28;20025;-77
2022/08/12 14:43:54;;;;;;;2.70;2.15;;;11.80;99.90;;;;;;5033726;28;20083;-77
2022/08/12 14:46:26;;;;;;;3.65;2.65;;;11.80;99.90;;;;;;5033785;28;20021;-78
2022/08/12 14:48:54;;;;;;;3.58;2.38;;;11.80;99.90;;;;;;5033655;28;20017;-78
2022/08/12 14:51:24;;;;;;;2.90;2.58;;;11.80;99.90;;;;;;5015791;28;20052;-78
2022/08/12 14:53:52;;;;;;;3.33;2.75;;;11.80;99.90;;;;;;5033414;28;20026;-78
2022/08/12 14:56:22;;;;;;;4.22;2.50;;;11.80;99.90;;;;;;5032530;28;20160;-78